Time;durP1;ratioP1;P1;durP2;ratioP2;P2;SDS_P1;SDS_P2;PMS_P1;PMS_P2;Temp;Humidity;BMP_temperature;BMP_pressure;BME280_temperature;BME280_humidity;BME280_pressure;Samples;Min_cycle;Max_cycle;Signal;HPM_P1;HPM_P2
2021/08/10 00:00:28;;;;;;;7.18;1.60;;;21.30;60.80;;;;;;5054124;28;20021;-68
2021/08/10 00:02:53;;;;;;;8.32;1.80;;;21.20;60.90;;;;;;5054252;28;20033;-68
2021/08/10 00:05:19;;;;;;;9.07;1.45;;;21.20;60.90;;;;;;5052994;28;20445;-69
2021/08/10 00:07:45;;;;;;;11.05;2.30;;;21.20;60.90;;;;;;5053946;28;20481;-69
2021/08/10 00:10:10;;;;;;;6.28;1.38;;;21.20;61.00;;;;;;5053819;28;20464;-68
2021/08/10 00:12:36;;;;;;;6.15;1.38;;;21.20;61.00;;;;;;5053895;28;20416;-68
2021/08/10 00:15:03;;;;;;;6.85;1.85;;;21.20;61.00;;;;;;5053772;28;20506;-68
2021/08/10 00:17:29;;;;;;;7.10;1.73;;;21.20;61.00;;;;;;5053756;28;20091;-68
2021/08/10 00:19:54;;;;;;;9.38;1.50;;;21.20;61.00;;;;;;5053943;28;20083;-68
2021/08/10 00:22:20;;;;;;;6.43;1.83;;;21.20;61.10;;;;;;5053554;28;20025;-68
2021/08/10 00:24:45;;;;;;;7.75;1.88;;;21.20;61.00;;;;;;5053408;28;20029;-68
2021/08/10 00:27:11;;;;;;;8.48;1.90;;;21.20;61.00;;;;;;5053569;28;20476;-68
2021/08/10 00:29:36;;;;;;;8.75;2.20;;;21.20;61.10;;;;;;5053814;28;20036;-68
2021/08/10 00:32:02;;;;;;;8.15;2.00;;;21.20;61.10;;;;;;5052190;28;20021;-69
2021/08/10 00:34:27;;;;;;;9.38;1.55;;;21.20;61.10;;;;;;5053528;28;20124;-68
2021/08/10 00:36:53;;;;;;;9.23;2.05;;;21.10;61.10;;;;;;5053480;28;20086;-68
2021/08/10 00:39:18;;;;;;;6.38;1.38;;;21.10;61.10;;;;;;5053915;28;20393;-68
2021/08/10 00:41:44;;;;;;;9.85;2.00;;;21.10;61.10;;;;;;5053324;28;20025;-69
2021/08/10 00:44:10;;;;;;;9.95;1.70;;;21.10;61.20;;;;;;5053223;28;20051;-68
2021/08/10 00:46:36;;;;;;;7.68;1.58;;;21.10;61.20;;;;;;5051994;28;20039;-68
2021/08/10 00:49:02;;;;;;;9.75;1.60;;;21.10;61.20;;;;;;5053188;28;20032;-68
2021/08/10 00:51:27;;;;;;;6.30;1.80;;;21.10;61.20;;;;;;5053261;28;20056;-68
2021/08/10 00:53:53;;;;;;;7.75;1.90;;;21.10;61.20;;;;;;5053317;28;20033;-68
2021/08/10 00:56:18;;;;;;;9.55;2.78;;;21.10;61.30;;;;;;5053517;28;20027;-68
2021/08/10 00:58:44;;;;;;;8.90;1.65;;;21.10;61.20;;;;;;5053846;28;20033;-68
2021/08/10 01:01:10;;;;;;;8.05;1.75;;;21.10;61.30;;;;;;5054191;28;20021;-68
2021/08/10 01:03:35;;;;;;;6.68;1.73;;;21.00;61.30;;;;;;5052936;28;20062;-69
2021/08/10 01:06:09;;;;;;;6.65;1.70;;;21.10;61.30;;;;;;5052954;28;20041;-68
2021/08/10 01:08:48;;;;;;;6.55;1.23;;;21.00;61.30;;;;;;5052941;28;20024;-68
2021/08/10 01:11:16;;;;;;;7.63;1.33;;;21.00;61.30;;;;;;5053449;28;20037;-68
2021/08/10 01:13:50;;;;;;;6.07;1.52;;;21.00;61.30;;;;;;5053111;28;20040;-69
2021/08/10 01:16:26;;;;;;;5.35;1.50;;;21.00;61.30;;;;;;5053254;28;20029;-69
2021/08/10 01:19:00;;;;;;;7.00;1.52;;;21.00;61.30;;;;;;5053217;28;20036;-68
2021/08/10 01:21:32;;;;;;;4.93;1.38;;;21.00;61.40;;;;;;5053638;28;20048;-69
2021/08/10 01:24:20;;;;;;;6.07;1.73;;;21.00;61.40;;;;;;5052745;28;20017;-68
2021/08/10 01:27:16;;;;;;;7.30;1.52;;;21.00;61.40;;;;;;5052236;28;20082;-68
2021/08/10 01:30:03;;;;;;;4.75;1.23;;;21.00;61.40;;;;;;5052734;28;20104;-68
2021/08/10 01:32:32;;;;;;;7.18;2.00;;;21.00;61.40;;;;;;5057556;28;20027;-68
2021/08/10 01:34:58;;;;;;;6.57;1.60;;;21.00;61.40;;;;;;5052828;28;20076;-68
2021/08/10 01:37:26;;;;;;;6.63;1.45;;;21.00;61.40;;;;;;5052675;28;20029;-68
2021/08/10 01:40:00;;;;;;;10.48;1.35;;;21.00;61.40;;;;;;5052485;28;20025;-68
2021/08/10 01:42:26;;;;;;;7.57;1.48;;;21.00;61.40;;;;;;5052647;28;20020;-68
2021/08/10 01:44:54;;;;;;;6.25;1.30;;;21.00;61.40;;;;;;5052545;28;20037;-69
2021/08/10 01:47:22;;;;;;;8.75;1.60;;;21.00;61.50;;;;;;5052562;28;20539;-68
2021/08/10 01:49:48;;;;;;;10.15;1.55;;;21.00;61.50;;;;;;5052485;28;20064;-68
2021/08/10 01:52:20;;;;;;;9.55;2.03;;;21.00;61.50;;;;;;5052677;28;20044;-68
2021/08/10 01:54:47;;;;;;;3.83;1.25;;;20.90;61.50;;;;;;5052603;28;20116;-68
2021/08/10 01:57:13;;;;;;;4.32;1.40;;;21.00;61.50;;;;;;5052459;28;20017;-68
2021/08/10 01:59:40;;;;;;;3.90;1.02;;;21.00;61.50;;;;;;5051140;28;20480;-68
2021/08/10 02:02:09;;;;;;;9.90;1.42;;;21.00;61.50;;;;;;5052462;28;20071;-68
2021/08/10 02:04:35;;;;;;;8.27;2.38;;;20.90;61.50;;;;;;5052213;28;20033;-68
2021/08/10 02:07:02;;;;;;;4.95;1.48;;;21.00;61.60;;;;;;5051029;28;20032;-68
2021/08/10 02:09:29;;;;;;;6.32;1.38;;;21.00;61.60;;;;;;5052514;28;20047;-68
2021/08/10 02:11:55;;;;;;;4.43;1.63;;;20.90;61.60;;;;;;5052239;28;20476;-68
2021/08/10 02:14:24;;;;;;;5.13;1.63;;;21.00;61.50;;;;;;5052342;28;20033;-68
2021/08/10 02:16:51;;;;;;;5.43;1.85;;;20.90;61.60;;;;;;5052225;28;20412;-68
2021/08/10 02:19:18;;;;;;;5.47;1.50;;;20.90;61.70;;;;;;5052180;28;20033;-68
2021/08/10 02:21:52;;;;;;;8.43;1.70;;;20.90;61.60;;;;;;5052210;28;20048;-68
2021/08/10 02:24:27;;;;;;;3.55;1.55;;;20.90;61.60;;;;;;5052057;28;20047;-68
2021/08/10 02:27:00;;;;;;;5.80;1.58;;;20.90;61.60;;;;;;5052169;28;20140;-68
2021/08/10 02:29:29;;;;;;;5.45;1.50;;;20.90;61.60;;;;;;5055775;28;20075;-68
2021/08/10 02:31:55;;;;;;;5.93;1.90;;;20.90;61.60;;;;;;5055911;28;20025;-68
2021/08/10 02:34:21;;;;;;;6.28;1.30;;;20.90;61.60;;;;;;5055514;28;20052;-68
2021/08/10 02:36:51;;;;;;;6.35;1.55;;;20.90;61.60;;;;;;5055885;28;20142;-68
2021/08/10 02:39:19;;;;;;;7.55;1.58;;;20.90;61.60;;;;;;5055586;28;20036;-68
2021/08/10 02:41:46;;;;;;;5.43;1.40;;;20.90;61.60;;;;;;5055557;28;20017;-68
2021/08/10 02:44:14;;;;;;;7.20;1.50;;;20.90;61.60;;;;;;5055381;28;20047;-68
2021/08/10 02:46:40;;;;;;;5.72;1.70;;;20.90;61.60;;;;;;5055465;28;20380;-68
2021/08/10 02:49:09;;;;;;;6.68;1.75;;;20.90;61.60;;;;;;5055424;28;20025;-68
2021/08/10 02:51:36;;;;;;;7.45;1.48;;;20.90;61.70;;;;;;5055552;28;20106;-68
2021/08/10 02:54:03;;;;;;;6.18;1.60;;;20.90;61.60;;;;;;5055409;28;20599;-68
2021/08/10 02:56:33;;;;;;;5.25;1.30;;;20.90;61.60;;;;;;5055292;28;20024;-68
2021/08/10 02:59:05;;;;;;;5.85;1.58;;;20.90;61.60;;;;;;5055186;28;20472;-68
2021/08/10 03:01:42;;;;;;;5.18;1.35;;;20.90;61.60;;;;;;5055255;28;20029;-68
2021/08/10 03:04:09;;;;;;;8.18;1.50;;;20.90;61.60;;;;;;5055162;28;20120;-69
2021/08/10 03:06:35;;;;;;;5.63;1.30;;;20.80;61.60;;;;;;5058091;28;20021;-68
2021/08/10 03:09:02;;;;;;;5.75;1.50;;;20.90;61.60;;;;;;5056662;28;20036;-69
2021/08/10 03:11:33;;;;;;;4.13;1.35;;;20.90;61.60;;;;;;5055194;28;20021;-68
2021/08/10 03:14:01;;;;;;;4.60;1.42;;;20.90;61.60;;;;;;5054983;28;20029;-68
2021/08/10 03:16:30;;;;;;;7.85;1.63;;;20.90;61.60;;;;;;5062215;28;20021;-70
2021/08/10 03:19:00;;;;;;;5.45;1.45;;;20.90;61.60;;;;;;5065780;28;20036;-69
2021/08/10 03:21:27;;;;;;;6.88;1.75;;;20.90;61.70;;;;;;5066041;28;20039;-69
2021/08/10 03:23:54;;;;;;;7.07;1.80;;;20.80;61.60;;;;;;5065620;28;20037;-70
2021/08/10 03:26:23;;;;;;;4.60;1.40;;;20.80;61.60;;;;;;5065788;28;20083;-70
2021/08/10 03:28:50;;;;;;;4.40;1.30;;;20.90;61.70;;;;;;5068442;28;20052;-68
2021/08/10 03:31:17;;;;;;;4.78;1.30;;;20.90;61.70;;;;;;5064739;28;20017;-69
2021/08/10 03:33:43;;;;;;;4.60;1.20;;;20.90;61.70;;;;;;5065634;28;20507;-68
2021/08/10 03:36:10;;;;;;;5.05;1.20;;;20.80;61.70;;;;;;5065403;28;20071;-68
2021/08/10 03:38:37;;;;;;;7.32;1.33;;;20.80;61.60;;;;;;5054311;28;20082;-68
2021/08/10 03:41:03;;;;;;;5.43;1.30;;;20.80;61.70;;;;;;5054282;28;20068;-67
2021/08/10 03:43:29;;;;;;;7.15;1.55;;;20.80;61.70;;;;;;5054378;28;20056;-68
2021/08/10 03:45:55;;;;;;;4.55;1.20;;;20.80;61.70;;;;;;5054617;28;20445;-68
2021/08/10 03:48:21;;;;;;;7.55;1.40;;;20.80;61.70;;;;;;5054392;28;20061;-69
2021/08/10 03:50:49;;;;;;;6.85;1.50;;;20.80;61.70;;;;;;5054259;28;20021;-69
2021/08/10 03:53:15;;;;;;;6.35;1.55;;;20.90;61.70;;;;;;5054266;28;20446;-68
2021/08/10 03:55:44;;;;;;;4.78;1.27;;;20.80;61.70;;;;;;5054173;28;20060;-68
2021/08/10 03:58:09;;;;;;;6.38;1.33;;;20.80;61.70;;;;;;5054389;28;20017;-68
2021/08/10 04:00:39;;;;;;;5.28;1.50;;;20.80;61.70;;;;;;5054122;28;20472;-68
2021/08/10 04:03:11;;;;;;;5.70;1.67;;;20.90;61.70;;;;;;5052765;28;20468;-68
2021/08/10 04:05:45;;;;;;;6.63;1.30;;;20.80;61.70;;;;;;5053953;28;20052;-68
2021/08/10 04:08:11;;;;;;;;;;;20.80;61.70;;;;;;5054308;28;20056;-67
2021/08/10 04:10:42;;;;;;;5.15;1.38;;;20.80;61.70;;;;;;5054014;28;20000;-68
2021/08/10 04:13:08;;;;;;;5.13;1.67;;;20.80;61.80;;;;;;5053910;28;20021;-68
2021/08/10 04:15:56;;;;;;;6.05;1.33;;;20.80;61.80;;;;;;5053795;28;20389;-68
2021/08/10 04:18:25;;;;;;;4.93;1.30;;;20.80;61.80;;;;;;5053791;28;20111;-68
2021/08/10 04:20:52;;;;;;;4.47;0.98;;;20.80;61.80;;;;;;5053669;28;20477;-68
2021/08/10 04:23:18;;;;;;;5.22;1.30;;;20.80;61.90;;;;;;5053609;28;20494;-68
2021/08/10 04:25:44;;;;;;;4.20;1.30;;;20.70;61.80;;;;;;5053580;28;20090;-68
2021/08/10 04:28:09;;;;;;;5.55;1.60;;;20.80;61.90;;;;;;5053618;28;20104;-68
2021/08/10 04:30:37;;;;;;;3.50;1.35;;;20.80;61.90;;;;;;5053432;28;20100;-67
2021/08/10 04:33:03;;;;;;;3.75;1.23;;;20.70;61.90;;;;;;5053613;28;20427;-68
2021/08/10 04:35:29;;;;;;;4.40;1.40;;;20.80;61.90;;;;;;5053574;28;20049;-67
2021/08/10 04:37:54;;;;;;;6.57;1.25;;;20.70;61.90;;;;;;5053761;28;20118;-68
2021/08/10 04:40:20;;;;;;;6.60;1.27;;;20.70;61.90;;;;;;5053398;28;20028;-68
2021/08/10 04:42:45;;;;;;;4.07;1.50;;;20.70;61.90;;;;;;5053399;28;20040;-68
2021/08/10 04:45:11;;;;;;;4.80;1.60;;;20.70;61.90;;;;;;5053508;28;20045;-67
2021/08/10 04:47:37;;;;;;;4.25;1.10;;;20.70;61.90;;;;;;5053349;28;20376;-68
2021/08/10 04:50:02;;;;;;;3.70;1.40;;;20.80;61.90;;;;;;5052930;28;20063;-68
2021/08/10 04:52:28;;;;;;;3.72;1.55;;;20.80;61.90;;;;;;5053198;28;20096;-68
2021/08/10 04:54:56;;;;;;;2.30;0.95;;;20.80;61.90;;;;;;5053148;28;20037;-68
2021/08/10 04:57:21;;;;;;;3.97;1.30;;;20.70;61.90;;;;;;5053161;28;20071;-68
2021/08/10 04:59:50;;;;;;;3.80;1.13;;;20.70;62.00;;;;;;5053014;28;20025;-67
2021/08/10 05:02:15;;;;;;;4.63;1.60;;;20.70;61.90;;;;;;5053069;28;20028;-68
2021/08/10 05:04:42;;;;;;;5.88;1.50;;;20.70;62.00;;;;;;5052926;28;20033;-68
2021/08/10 05:07:08;;;;;;;4.65;1.33;;;20.70;62.00;;;;;;5052983;28;20043;-68
2021/08/10 05:09:33;;;;;;;4.50;1.23;;;20.70;61.90;;;;;;5052964;28;20472;-68
2021/08/10 05:11:59;;;;;;;3.65;1.27;;;20.70;62.00;;;;;;5053251;28;20025;-68
2021/08/10 05:14:24;;;;;;;6.45;2.13;;;20.70;62.00;;;;;;5052765;28;20021;-68
2021/08/10 05:16:50;;;;;;;6.45;1.52;;;20.70;62.00;;;;;;5052921;28;20025;-68
2021/08/10 05:19:15;;;;;;;4.47;1.40;;;20.70;62.10;;;;;;5052882;28;20071;-68
2021/08/10 05:21:41;;;;;;;4.00;1.48;;;20.70;62.10;;;;;;5052867;28;20135;-68
2021/08/10 05:24:07;;;;;;;4.05;1.35;;;20.70;62.00;;;;;;5052915;28;20025;-68
2021/08/10 05:26:32;;;;;;;4.95;1.60;;;20.70;62.00;;;;;;5052775;28;20032;-68
2021/08/10 05:28:58;;;;;;;5.47;1.30;;;20.70;62.00;;;;;;5052556;28;20575;-67
2021/08/10 05:31:23;;;;;;;6.75;1.50;;;20.70;62.00;;;;;;5052688;28;20033;-68
2021/08/10 05:33:49;;;;;;;4.15;1.40;;;20.70;62.10;;;;;;5052545;28;20013;-67
2021/08/10 05:36:15;;;;;;;3.60;1.38;;;20.70;62.10;;;;;;5052511;28;20052;-68
2021/08/10 05:38:43;;;;;;;4.45;1.55;;;20.70;62.00;;;;;;5052620;28;20029;-68
2021/08/10 05:41:09;;;;;;;4.88;1.38;;;20.70;62.00;;;;;;5058970;28;20080;-68
2021/08/10 05:43:34;;;;;;;3.38;1.35;;;20.60;62.20;;;;;;5034092;28;20179;-67
2021/08/10 05:46:01;;;;;;;4.43;1.38;;;20.70;62.20;;;;;;5031746;28;20033;-68
2021/08/10 05:48:26;;;;;;;6.05;1.63;;;20.70;62.00;;;;;;5031417;28;20530;-68
2021/08/10 05:50:52;;;;;;;5.90;1.63;;;20.70;62.10;;;;;;5031799;28;20061;-68
2021/08/10 05:53:17;;;;;;;4.82;1.30;;;20.70;62.20;;;;;;5031157;28;20028;-68
2021/08/10 05:55:43;;;;;;;4.55;1.30;;;20.70;62.20;;;;;;5033146;28;20412;-68
2021/08/10 05:58:08;;;;;;;6.75;1.33;;;20.70;62.30;;;;;;5051588;28;20036;-68
2021/08/10 06:00:34;;;;;;;4.10;1.52;;;20.70;62.30;;;;;;5042069;28;20456;-68
2021/08/10 06:02:59;;;;;;;4.25;1.48;;;20.70;62.40;;;;;;5033333;28;20022;-67
2021/08/10 06:05:25;;;;;;;4.43;1.50;;;20.70;62.40;;;;;;5035426;28;20366;-68
2021/08/10 06:07:50;;;;;;;3.88;1.65;;;20.70;62.40;;;;;;5035409;28;20492;-68
2021/08/10 06:10:16;;;;;;;4.07;1.33;;;20.80;62.30;;;;;;5035494;28;20104;-68
2021/08/10 06:12:41;;;;;;;3.28;1.50;;;20.80;62.30;;;;;;5052607;28;20469;-68
2021/08/10 06:15:07;;;;;;;4.75;1.20;;;20.70;62.40;;;;;;5057925;28;20040;-68
2021/08/10 06:17:33;;;;;;;4.47;1.67;;;20.70;62.40;;;;;;5057764;28;20035;-67
2021/08/10 06:19:58;;;;;;;7.05;1.58;;;20.70;62.30;;;;;;5057608;28;20104;-67
2021/08/10 06:22:24;;;;;;;4.18;1.77;;;20.80;62.30;;;;;;5055368;28;20033;-67
2021/08/10 06:24:49;;;;;;;3.72;1.25;;;20.80;62.30;;;;;;5053542;28;20037;-68
2021/08/10 06:27:15;;;;;;;6.05;1.55;;;20.80;62.20;;;;;;5060152;28;20074;-65
2021/08/10 06:29:41;;;;;;;4.78;1.42;;;20.80;62.10;;;;;;5061878;28;20358;-69
2021/08/10 06:32:06;;;;;;;4.93;1.90;;;20.80;62.00;;;;;;5071583;28;20904;-67
2021/08/10 06:34:32;;;;;;;4.82;1.42;;;20.80;62.10;;;;;;5054210;28;20057;-67
2021/08/10 06:36:57;;;;;;;5.45;1.48;;;20.90;61.90;;;;;;5046429;28;20382;-67
2021/08/10 06:39:23;;;;;;;2.85;1.38;;;20.90;62.00;;;;;;5034629;28;20502;-67
2021/08/10 06:41:48;;;;;;;5.13;1.63;;;20.90;61.90;;;;;;5038705;28;20034;-67
2021/08/10 06:44:14;;;;;;;4.10;1.40;;;20.90;61.80;;;;;;5074455;28;20032;-66
2021/08/10 06:46:39;;;;;;;5.78;1.60;;;21.00;61.70;;;;;;5074428;28;20029;-67
2021/08/10 06:49:05;;;;;;;3.55;1.33;;;21.00;61.70;;;;;;5056854;28;20113;-68
2021/08/10 06:51:30;;;;;;;3.50;1.25;;;21.00;61.70;;;;;;5054157;28;20059;-68
2021/08/10 06:53:56;;;;;;;6.50;1.10;;;21.00;61.70;;;;;;5054724;28;20079;-67
2021/08/10 06:56:21;;;;;;;5.38;1.80;;;21.00;61.70;;;;;;5054294;28;20025;-68
2021/08/10 06:58:47;;;;;;;4.38;1.33;;;21.00;61.50;;;;;;5054536;28;20519;-66
2021/08/10 07:01:12;;;;;;;3.20;1.13;;;21.00;61.50;;;;;;5054292;28;20473;-68
2021/08/10 07:03:38;;;;;;;7.22;1.67;;;21.00;61.40;;;;;;5053623;28;20376;-70
2021/08/10 07:06:03;;;;;;;5.63;1.55;;;21.00;61.50;;;;;;5054454;28;20438;-67
2021/08/10 07:08:29;;;;;;;3.25;1.17;;;21.00;61.50;;;;;;5053443;28;20129;-67
2021/08/10 07:10:54;;;;;;;4.13;1.58;;;21.00;61.60;;;;;;5052217;28;20033;-66
2021/08/10 07:13:20;;;;;;;4.60;1.60;;;21.10;61.50;;;;;;5053175;28;20436;-67
2021/08/10 07:15:45;;;;;;;4.82;1.40;;;21.10;61.50;;;;;;5052986;28;20029;-66
2021/08/10 07:18:11;;;;;;;5.32;1.63;;;21.10;61.40;;;;;;5053839;28;20060;-68
2021/08/10 07:20:36;;;;;;;4.80;1.52;;;21.10;61.40;;;;;;5053178;28;20021;-68
2021/08/10 07:23:02;;;;;;;4.60;1.70;;;21.10;61.40;;;;;;5053709;28;20018;-68
2021/08/10 07:25:28;;;;;;;3.03;1.20;;;21.20;61.30;;;;;;5053558;28;20048;-66
2021/08/10 07:27:53;;;;;;;5.75;1.70;;;21.20;61.30;;;;;;5051689;28;20496;-68
2021/08/10 07:30:19;;;;;;;4.68;1.38;;;21.20;61.30;;;;;;5053125;28;20037;-67
2021/08/10 07:32:45;;;;;;;3.95;1.58;;;21.20;61.30;;;;;;5053637;28;20104;-68
2021/08/10 07:35:11;;;;;;;3.95;1.40;;;21.20;61.30;;;;;;5053110;28;20112;-67
2021/08/10 07:37:41;;;;;;;3.50;1.30;;;21.20;61.30;;;;;;5050792;28;20022;-65
2021/08/10 07:40:07;;;;;;;4.90;1.83;;;21.20;61.40;;;;;;5039374;28;20021;-67
2021/08/10 07:42:33;;;;;;;4.25;1.60;;;21.20;61.50;;;;;;5053151;28;20028;-66
2021/08/10 07:44:58;;;;;;;4.90;1.30;;;21.20;61.50;;;;;;5053307;28;20044;-64
2021/08/10 07:47:24;;;;;;;5.80;1.35;;;21.30;61.40;;;;;;5053049;28;20083;-66
2021/08/10 07:49:49;;;;;;;4.10;1.42;;;21.30;61.30;;;;;;5053256;28;20029;-68
2021/08/10 07:52:15;;;;;;;3.85;1.50;;;21.30;61.30;;;;;;5051892;28;20023;-66
2021/08/10 07:54:41;;;;;;;5.65;1.80;;;21.30;61.30;;;;;;5045482;28;20029;-67
2021/08/10 07:57:07;;;;;;;4.60;2.38;;;21.30;61.40;;;;;;5052568;28;20025;-67
2021/08/10 07:59:33;;;;;;;8.15;2.33;;;21.30;61.40;;;;;;5052253;28;20036;-69
2021/08/10 08:01:59;;;;;;;4.25;1.70;;;21.30;61.40;;;;;;5052159;28;20100;-69
2021/08/10 08:04:24;;;;;;;4.50;1.73;;;21.30;61.50;;;;;;5052187;28;20063;-69
2021/08/10 08:06:50;;;;;;;5.82;1.73;;;21.30;61.60;;;;;;5052924;28;20037;-70
2021/08/10 08:09:16;;;;;;;3.45;1.52;;;21.40;61.50;;;;;;5052002;28;20107;-69
2021/08/10 08:11:41;;;;;;;4.15;1.67;;;21.40;61.40;;;;;;5052164;28;20029;-69
2021/08/10 08:14:07;;;;;;;5.10;1.60;;;21.40;61.40;;;;;;5052148;28;20021;-69
2021/08/10 08:16:33;;;;;;;4.63;1.55;;;21.40;61.50;;;;;;5052175;28;20033;-68
2021/08/10 08:18:58;;;;;;;5.43;1.60;;;21.40;61.40;;;;;;5048984;28;20492;-69
2021/08/10 08:21:25;;;;;;;5.93;1.98;;;21.40;61.30;;;;;;5051868;28;20126;-68
2021/08/10 08:23:51;;;;;;;4.40;1.65;;;21.40;61.40;;;;;;5052063;28;20033;-69
2021/08/10 08:26:19;;;;;;;3.78;1.80;;;21.40;61.40;;;;;;5051859;28;20025;-71
2021/08/10 08:28:44;;;;;;;4.68;1.50;;;21.40;61.40;;;;;;5051766;28;20068;-66
2021/08/10 08:31:10;;;;;;;3.33;1.30;;;21.50;61.30;;;;;;5052241;28;20161;-70
2021/08/10 08:33:35;;;;;;;5.72;1.80;;;21.50;61.30;;;;;;5051903;28;20029;-69
2021/08/10 08:36:01;;;;;;;3.55;1.50;;;21.50;61.30;;;;;;5051486;28;20580;-65
2021/08/10 08:38:26;;;;;;;5.15;1.63;;;21.50;61.30;;;;;;5042126;28;20033;-68
2021/08/10 08:40:53;;;;;;;3.88;1.77;;;21.50;61.30;;;;;;5051005;28;20104;-68
2021/08/10 08:43:20;;;;;;;4.82;2.13;;;21.50;61.30;;;;;;5051109;28;20029;-68
2021/08/10 08:45:45;;;;;;;3.35;1.33;;;21.50;61.30;;;;;;5052244;28;20498;-68
2021/08/10 08:48:13;;;;;;;6.55;1.73;;;21.50;61.30;;;;;;5052167;28;20029;-69
2021/08/10 08:50:39;;;;;;;5.93;1.63;;;21.50;61.30;;;;;;5051636;28;20037;-68
2021/08/10 08:53:06;;;;;;;5.40;1.70;;;21.50;61.30;;;;;;5052126;28;20525;-68
2021/08/10 08:55:33;;;;;;;3.58;1.50;;;21.50;61.30;;;;;;5052466;28;20021;-68
2021/08/10 08:58:02;;;;;;;4.63;1.50;;;21.50;61.40;;;;;;5051940;28;20040;-69
2021/08/10 09:00:28;;;;;;;7.57;1.73;;;21.50;61.40;;;;;;5051829;28;20013;-68
2021/08/10 09:02:53;;;;;;;4.20;1.60;;;21.50;61.30;;;;;;5051750;28;20033;-70
2021/08/10 09:05:19;;;;;;;4.97;2.10;;;21.50;61.30;;;;;;5051619;28;20032;-69
2021/08/10 09:07:44;;;;;;;6.30;1.92;;;21.50;61.20;;;;;;5041948;28;20029;-69
2021/08/10 09:10:16;;;;;;;3.15;1.33;;;21.50;61.20;;;;;;5031440;28;20029;-68
2021/08/10 09:12:53;;;;;;;5.18;1.40;;;21.50;61.20;;;;;;5030551;28;20558;-69
2021/08/10 09:15:46;;;;;;;4.93;1.75;;;21.50;61.20;;;;;;5031220;28;20463;-68
2021/08/10 09:18:20;;;;;;;3.53;1.17;;;21.50;61.10;;;;;;5030731;28;20069;-68
2021/08/10 09:21:05;;;;;;;3.00;1.25;;;21.60;61.10;;;;;;5031495;28;20057;-67
2021/08/10 09:23:43;;;;;;;5.18;1.33;;;21.60;61.10;;;;;;5032162;28;20045;-68
2021/08/10 09:26:10;;;;;;;2.95;1.35;;;21.60;61.10;;;;;;5033385;28;20037;-66
2021/08/10 09:28:37;;;;;;;5.20;1.52;;;21.60;61.10;;;;;;5051812;28;20025;-68
2021/08/10 09:31:27;;;;;;;2.70;0.88;;;21.60;61.10;;;;;;5050553;28;20029;-67
2021/08/10 09:33:57;;;;;;;6.38;1.67;;;21.60;61.10;;;;;;5052275;28;20115;-67
2021/08/10 09:36:23;;;;;;;3.60;1.27;;;21.60;61.10;;;;;;5048040;28;20140;-68
2021/08/10 09:38:49;;;;;;;2.97;1.23;;;21.60;61.10;;;;;;5047206;28;20174;-68
2021/08/10 09:41:15;;;;;;;4.90;2.42;;;21.60;61.10;;;;;;5053993;28;20028;-69
2021/08/10 09:43:41;;;;;;;5.55;1.90;;;21.60;61.10;;;;;;5051600;28;20020;-67
2021/08/10 09:46:18;;;;;;;4.07;1.58;;;21.60;61.00;;;;;;5055843;28;20025;-66
2021/08/10 09:48:49;;;;;;;4.57;1.60;;;21.60;61.10;;;;;;5055527;28;20057;-68
2021/08/10 09:51:18;;;;;;;3.08;1.02;;;21.70;61.10;;;;;;5055972;28;20033;-69
2021/08/10 09:53:54;;;;;;;4.03;1.50;;;21.70;61.10;;;;;;5053137;28;20060;-69
2021/08/10 09:56:20;;;;;;;4.78;1.65;;;21.70;61.00;;;;;;5035643;28;20108;-69
2021/08/10 09:58:57;;;;;;;2.90;1.25;;;21.70;61.00;;;;;;5035462;28;20057;-66
2021/08/10 10:01:36;;;;;;;3.40;1.20;;;21.70;61.00;;;;;;5035142;28;20043;-63
2021/08/10 10:04:16;;;;;;;3.42;1.42;;;21.80;60.90;;;;;;5035475;28;20079;-67
2021/08/10 10:06:43;;;;;;;3.83;1.40;;;21.80;60.90;;;;;;5035699;28;20469;-65
2021/08/10 10:09:09;;;;;;;4.45;1.73;;;21.80;60.90;;;;;;5042615;28;20120;-66
2021/08/10 10:11:37;;;;;;;4.40;1.77;;;21.80;60.90;;;;;;5054607;28;20111;-65
2021/08/10 10:14:03;;;;;;;5.78;1.52;;;21.80;60.90;;;;;;5054979;28;20029;-70
2021/08/10 10:16:29;;;;;;;4.20;1.27;;;21.80;60.90;;;;;;5054858;28;20715;-69
2021/08/10 10:18:56;;;;;;;3.80;1.52;;;21.90;60.80;;;;;;5054813;28;20033;-66
2021/08/10 10:21:21;;;;;;;3.10;1.48;;;21.80;60.90;;;;;;5054111;28;20024;-67
2021/08/10 10:23:51;;;;;;;6.85;1.88;;;21.90;60.80;;;;;;5053654;28;20442;-66
2021/08/10 10:26:17;;;;;;;3.17;1.25;;;21.90;60.80;;;;;;5053784;28;20029;-67
2021/08/10 10:28:43;;;;;;;3.70;1.33;;;21.90;60.70;;;;;;5053190;28;20021;-69
2021/08/10 10:31:09;;;;;;;3.67;1.30;;;21.90;60.70;;;;;;5049907;28;20064;-69
2021/08/10 10:33:35;;;;;;;2.85;1.27;;;22.00;60.70;;;;;;5054461;28;20064;-68
2021/08/10 10:36:02;;;;;;;5.38;1.65;;;21.90;60.70;;;;;;5053830;28;20052;-68
2021/08/10 10:38:28;;;;;;;4.50;1.75;;;22.00;60.70;;;;;;5054072;28;20075;-67
2021/08/10 10:40:55;;;;;;;4.40;1.30;;;22.00;60.70;;;;;;5054155;28;20667;-69
2021/08/10 10:43:25;;;;;;;2.85;1.38;;;21.90;60.70;;;;;;5054292;28;20044;-72
2021/08/10 10:45:53;;;;;;;6.97;1.90;;;22.00;60.70;;;;;;5054128;28;20033;-68
2021/08/10 10:48:28;;;;;;;4.05;1.85;;;22.00;60.70;;;;;;5052964;28;20044;-69
2021/08/10 10:51:11;;;;;;;5.18;1.45;;;22.00;60.70;;;;;;5053426;28;20556;-69
2021/08/10 10:53:38;;;;;;;3.67;1.60;;;22.00;60.60;;;;;;5061600;28;20017;-71
2021/08/10 10:56:26;;;;;;;3.00;1.50;;;22.00;60.80;;;;;;5065175;28;20275;-70
2021/08/10 10:59:16;;;;;;;4.65;1.30;;;22.00;60.80;;;;;;5064532;28;20036;-69
2021/08/10 11:01:41;;;;;;;6.95;1.67;;;22.00;60.80;;;;;;5065704;28;20020;-68
2021/08/10 11:04:09;;;;;;;3.15;1.35;;;22.00;60.80;;;;;;5065990;28;20069;-72
2021/08/10 11:06:42;;;;;;;3.58;1.55;;;22.00;60.80;;;;;;5064746;28;20089;-67
2021/08/10 11:09:08;;;;;;;4.82;1.85;;;22.10;60.70;;;;;;5064755;28;20020;-67
2021/08/10 11:11:50;;;;;;;4.30;1.70;;;22.00;60.70;;;;;;5057194;28;20044;-68
2021/08/10 11:14:37;;;;;;;3.05;1.30;;;22.10;60.70;;;;;;5057548;28;20025;-68
2021/08/10 11:17:08;;;;;;;3.17;1.40;;;22.10;60.70;;;;;;5056884;28;20025;-68
2021/08/10 11:19:35;;;;;;;8.77;2.95;;;22.10;60.70;;;;;;5057499;28;20025;-66
2021/08/10 11:22:16;;;;;;;5.90;1.88;;;22.10;60.70;;;;;;5058631;28;20096;-68
2021/08/10 11:24:53;;;;;;;4.05;1.33;;;22.10;60.70;;;;;;5056012;28;20485;-68
2021/08/10 11:27:37;;;;;;;4.10;1.27;;;22.10;60.60;;;;;;5054094;28;20025;-68
2021/08/10 11:30:09;;;;;;;5.45;1.83;;;22.20;60.60;;;;;;5052572;28;20484;-68
2021/08/10 11:32:46;;;;;;;2.97;1.40;;;22.20;60.60;;;;;;5034857;28;20030;-69
2021/08/10 11:35:28;;;;;;;3.10;1.50;;;22.30;60.50;;;;;;5049293;28;20558;-68
2021/08/10 11:38:05;;;;;;;4.28;1.58;;;22.30;60.40;;;;;;5034162;28;20057;-69
2021/08/10 11:40:37;;;;;;;2.72;1.33;;;22.30;60.30;;;;;;5034204;28;20032;-68
2021/08/10 11:43:03;;;;;;;4.45;1.60;;;22.40;60.20;;;;;;5034884;28;20022;-69
2021/08/10 11:45:36;;;;;;;3.50;1.45;;;22.40;60.20;;;;;;5033926;28;20033;-70
2021/08/10 11:48:02;;;;;;;4.50;1.85;;;22.40;60.20;;;;;;5033620;28;20029;-69
2021/08/10 11:50:30;;;;;;;2.78;1.30;;;22.40;60.10;;;;;;5032881;28;20519;-66
2021/08/10 11:52:56;;;;;;;3.55;1.42;;;22.50;60.10;;;;;;5033297;28;20557;-67
2021/08/10 11:55:31;;;;;;;4.50;1.58;;;22.50;60.10;;;;;;5032177;28;20124;-68
2021/08/10 11:58:02;;;;;;;4.45;1.85;;;22.50;60.10;;;;;;5050033;28;20074;-65
2021/08/10 12:00:29;;;;;;;6.25;1.67;;;22.50;60.10;;;;;;5051632;28;20052;-64
2021/08/10 12:02:55;;;;;;;4.60;1.50;;;22.50;60.00;;;;;;5051929;28;20102;-67
2021/08/10 12:05:21;;;;;;;4.63;1.52;;;22.50;59.90;;;;;;5052744;28;20394;-67
2021/08/10 12:07:51;;;;;;;4.07;1.60;;;22.60;59.90;;;;;;5052633;28;20096;-66
2021/08/10 12:10:22;;;;;;;4.47;1.65;;;22.60;59.90;;;;;;5052144;28;20029;-67
2021/08/10 12:12:47;;;;;;;3.13;1.20;;;22.60;59.90;;;;;;5052085;28;20059;-66
2021/08/10 12:15:32;;;;;;;3.88;1.48;;;22.50;60.00;;;;;;5052257;28;20057;-67
2021/08/10 12:17:58;;;;;;;3.40;1.35;;;22.60;60.00;;;;;;5052144;28;20033;-66
2021/08/10 12:20:23;;;;;;;4.13;1.40;;;22.60;60.00;;;;;;5052035;28;20044;-66
2021/08/10 12:23:09;;;;;;;3.28;1.40;;;22.50;60.10;;;;;;5052666;28;20025;-66
2021/08/10 12:25:35;;;;;;;6.20;1.58;;;22.50;60.10;;;;;;5052688;28;20055;-66
2021/08/10 12:28:05;;;;;;;2.90;1.40;;;22.50;60.10;;;;;;5052412;28;20024;-66
2021/08/10 12:30:33;;;;;;;4.55;1.65;;;22.50;60.20;;;;;;5046350;28;20366;-65
2021/08/10 12:33:12;;;;;;;3.42;1.20;;;22.50;60.10;;;;;;5032793;28;20028;-65
2021/08/10 12:35:38;;;;;;;3.78;1.30;;;22.60;60.10;;;;;;5032271;28;20488;-65
2021/08/10 12:38:05;;;;;;;5.00;1.45;;;22.70;60.00;;;;;;5032462;28;20452;-66
2021/08/10 12:40:31;;;;;;;4.05;1.38;;;22.80;59.80;;;;;;5032668;28;20369;-65
2021/08/10 12:42:57;;;;;;;3.75;1.40;;;22.90;59.70;;;;;;5032658;28;20026;-66
2021/08/10 12:45:29;;;;;;;2.70;1.10;;;22.90;59.70;;;;;;5032323;28;20095;-66
2021/08/10 12:47:55;;;;;;;3.38;1.05;;;22.80;59.70;;;;;;5032452;28;20033;-66
2021/08/10 12:50:25;;;;;;;3.35;1.33;;;22.80;59.90;;;;;;5032268;28;20702;-67
2021/08/10 12:52:50;;;;;;;4.10;2.00;;;22.70;59.90;;;;;;5032512;28;20032;-66